TimeEDT,TemperatureF,Dew PointF,Humidity,Sea Level PressureIn,VisibilityMPH,Wind Direction,Wind SpeedMPH,Gust SpeedMPH,PrecipitationIn,Events,Conditions,WindDirDegrees,DateUTC
12:51 AM,48.0,45.0,89,30.09,10.0,WNW,5.8,-,0.02,Rain,Light Rain,290,2012-10-08 04:51:00
1:51 AM,48.0,44.1,86,30.09,10.0,WNW,4.6,-,0.00,,Overcast,300,2012-10-08 05:51:00
2:51 AM,46.0,42.1,86,30.09,10.0,NW,3.5,-,N/A,,Clear,320,2012-10-08 06:51:00
3:51 AM,44.6,42.8,93,30.10,10.0,Calm,Calm,-,N/A,,Clear,0,2012-10-08 07:51:00
4:51 AM,44.1,41.0,89,30.13,10.0,Calm,Calm,-,N/A,,Clear,0,2012-10-08 08:51:00
5:51 AM,42.1,39.9,92,30.15,10.0,NNE,3.5,-,N/A,,Clear,20,2012-10-08 09:51:00
6:51 AM,42.1,39.9,92,30.16,10.0,Calm,Calm,-,N/A,Fog,Patches of Fog,0,2012-10-08 10:51:00
7:51 AM,44.1,42.1,93,30.19,10.0,WNW,3.5,-,N/A,,Scattered Clouds,300,2012-10-08 11:51:00
8:51 AM,48.9,43.0,80,30.23,10.0,NNW,6.9,-,N/A,,Scattered Clouds,340,2012-10-08 12:51:00
9:51 AM,53.1,43.0,69,30.24,10.0,North,8.1,-,N/A,,Scattered Clouds,350,2012-10-08 13:51:00
10:51 AM,54.0,41.0,62,30.25,10.0,North,8.1,-,N/A,,Mostly Cloudy,350,2012-10-08 14:51:00
11:51 AM,55.9,41.0,57,30.25,10.0,NNE,4.6,-,N/A,,Mostly Cloudy,30,2012-10-08 15:51:00
12:51 PM,55.0,39.0,55,30.24,10.0,NE,3.5,-,N/A,,Mostly Cloudy,40,2012-10-08 16:51:00
1:51 PM,55.0,41.0,59,30.26,10.0,SSE,6.9,-,N/A,,Overcast,150,2012-10-08 17:51:00
2:51 PM,55.0,42.1,62,30.27,10.0,South,6.9,-,N/A,,Overcast,180,2012-10-08 18:51:00
3:51 PM,55.9,42.1,60,30.25,10.0,South,6.9,-,N/A,,Overcast,190,2012-10-08 19:51:00
4:51 PM,55.0,43.0,64,30.26,10.0,South,5.8,-,N/A,,Overcast,180,2012-10-08 20:51:00
5:51 PM,53.1,44.1,71,30.27,10.0,Calm,Calm,-,N/A,,Overcast,0,2012-10-08 21:51:00
6:51 PM,52.0,45.0,77,30.30,10.0,SW,4.6,-,N/A,,Overcast,220,2012-10-08 22:51:00
7:51 PM,51.8,44.6,76,30.29,10.0,WSW,3.5,-,N/A,,Overcast,250,2012-10-08 23:51:00
8:51 PM,51.1,45.0,80,30.31,10.0,Calm,Calm,-,N/A,,Mostly Cloudy,0,2012-10-09 00:51:00
9:51 PM,51.1,45.0,80,30.30,10.0,North,3.5,-,N/A,,Overcast,10,2012-10-09 01:51:00
10:51 PM,50.0,46.0,86,30.30,10.0,NE,5.8,-,N/A,,Overcast,40,2012-10-09 02:51:00
11:51 PM,50.0,46.0,86,30.28,10.0,NE,5.8,-,N/A,,Overcast,40,2012-10-09 03:51:00